TPC142 KJAX-KJZP
Flight info
| Callsign | TPC142 |
|---|---|
| Flight time | 0h 58m |
| Altitude | 40000 |
| Route | AMG MCN WOMAC |
| Aircraft | HDJT/L-SABDGRWY/H |
Departure
| Time | 2026-05-04 21:56 |
|---|---|
| Airport | Jacksonville International Airport (KJAX) |
Arrival
| Time | 2026-05-04 22:54 |
|---|---|
| Airport | Pickens County Airport (KJZP) |
| Time | Latitude | Longitude | Altitude | Speed | Heading |
|---|---|---|---|---|---|
| 2026-05-04 21:36 | 30.49765 | -81.68275 | 30 ft | 0 kts | 71° |
| 2026-05-04 21:49 | 30.49768 | -81.68272 | 30 ft | 3 kts | 22° |
| 2026-05-04 21:49 | 30.49793 | -81.68298 | 30 ft | 11 kts | 320° |
| 2026-05-04 21:49 | 30.49861 | -81.68351 | 30 ft | 11 kts | 300° |
| 2026-05-04 21:50 | 30.49865 | -81.68423 | 31 ft | 7 kts | 299° |
| 2026-05-04 21:50 | 30.49904 | -81.68460 | 31 ft | 8 kts | 292° |
| 2026-05-04 21:50 | 30.49889 | -81.68550 | 32 ft | 15 kts | 252° |
| 2026-05-04 21:50 | 30.49848 | -81.68690 | 32 ft | 22 kts | 249° |
| 2026-05-04 21:51 | 30.49791 | -81.68879 | 32 ft | 28 kts | 250° |
| 2026-05-04 21:51 | 30.49720 | -81.69110 | 32 ft | 31 kts | 251° |
| 2026-05-04 21:51 | 30.49647 | -81.69344 | 32 ft | 31 kts | 249° |
| 2026-05-04 21:51 | 30.49577 | -81.69573 | 32 ft | 30 kts | 250° |
| 2026-05-04 21:52 | 30.49523 | -81.69738 | 32 ft | 18 kts | 249° |
| 2026-05-04 21:52 | 30.49486 | -81.69866 | 32 ft | 17 kts | 255° |
| 2026-05-04 21:52 | 30.49533 | -81.69946 | 32 ft | 0 kts | 343° |
| 2026-05-04 21:54 | 30.49534 | -81.69946 | 32 ft | 0 kts | 343° |
| 2026-05-04 21:54 | 30.49589 | -81.69969 | 32 ft | 14 kts | 339° |
| 2026-05-04 21:54 | 30.49641 | -81.69934 | 32 ft | 0 kts | 67° |
| 2026-05-04 21:55 | 30.49643 | -81.69929 | 32 ft | 11 kts | 66° |
| 2026-05-04 21:55 | 30.49782 | -81.69498 | 32 ft | 102 kts | 68° |
| 2026-05-04 21:55 | 30.50087 | -81.68591 | 237 ft | 127 kts | 71° |
| 2026-05-04 21:55 | 30.50464 | -81.67624 | 433 ft | 139 kts | 72° |
| 2026-05-04 21:56 | 30.50826 | -81.66557 | 875 ft | 148 kts | 72° |
| 2026-05-04 21:56 | 30.51232 | -81.65314 | 1189 ft | 180 kts | 72° |
| 2026-05-04 21:56 | 30.51728 | -81.63884 | 1711 ft | 202 kts | 71° |
| 2026-05-04 21:56 | 30.52291 | -81.62319 | 2361 ft | 217 kts | 70° |
| 2026-05-04 21:57 | 30.52938 | -81.60676 | 2963 ft | 235 kts | 59° |
| 2026-05-04 21:57 | 30.54191 | -81.59314 | 2999 ft | 260 kts | 31° |
| 2026-05-04 21:57 | 30.55953 | -81.58806 | 3009 ft | 268 kts | 1° |
| 2026-05-04 21:57 | 30.57766 | -81.59345 | 3010 ft | 273 kts | 332° |
| 2026-05-04 21:58 | 30.59176 | -81.60810 | 3009 ft | 277 kts | 308° |
| 2026-05-04 21:58 | 30.60278 | -81.62658 | 3010 ft | 279 kts | 305° |
| 2026-05-04 21:58 | 30.61488 | -81.64395 | 3008 ft | 276 kts | 315° |
| 2026-05-04 21:58 | 30.62960 | -81.65842 | 3016 ft | 276 kts | 324° |
| 2026-05-04 21:59 | 30.64481 | -81.67158 | 3137 ft | 262 kts | 323° |
| 2026-05-04 21:59 | 30.65803 | -81.68432 | 3712 ft | 241 kts | 320° |
| 2026-05-04 21:59 | 30.67045 | -81.69676 | 4739 ft | 234 kts | 320° |
| 2026-05-04 21:59 | 30.68292 | -81.70889 | 5665 ft | 233 kts | 319° |
| 2026-05-04 22:00 | 30.69525 | -81.72081 | 6691 ft | 228 kts | 318° |
| 2026-05-04 22:00 | 30.70734 | -81.73257 | 7584 ft | 227 kts | 317° |
| 2026-05-04 22:00 | 30.71951 | -81.74442 | 8422 ft | 230 kts | 317° |
| 2026-05-04 22:00 | 30.73187 | -81.75646 | 9284 ft | 233 kts | 317° |
| 2026-05-04 22:01 | 30.74446 | -81.76872 | 10078 ft | 239 kts | 318° |
| 2026-05-04 22:01 | 30.75724 | -81.78116 | 10876 ft | 241 kts | 318° |
| 2026-05-04 22:01 | 30.77020 | -81.79378 | 11687 ft | 244 kts | 318° |
| 2026-05-04 22:01 | 30.78323 | -81.80649 | 12548 ft | 246 kts | 318° |
| 2026-05-04 22:02 | 30.79634 | -81.81928 | 13418 ft | 246 kts | 317° |
| 2026-05-04 22:02 | 30.80960 | -81.83221 | 14168 ft | 252 kts | 318° |
| 2026-05-04 22:02 | 30.82309 | -81.84537 | 14870 ft | 254 kts | 318° |
| 2026-05-04 22:02 | 30.83673 | -81.85869 | 15614 ft | 257 kts | 317° |
| 2026-05-04 22:03 | 30.85051 | -81.87215 | 16377 ft | 259 kts | 317° |
| 2026-05-04 22:03 | 30.86438 | -81.88570 | 17158 ft | 261 kts | 317° |
| 2026-05-04 22:03 | 30.87943 | -81.89784 | 17932 ft | 267 kts | 326° |
| 2026-05-04 22:03 | 30.89531 | -81.90871 | 18664 ft | 269 kts | 324° |
| 2026-05-04 22:04 | 30.91129 | -81.92006 | 19352 ft | 270 kts | 324° |
| 2026-05-04 22:04 | 30.92741 | -81.93148 | 20064 ft | 272 kts | 324° |
| 2026-05-04 22:04 | 30.94369 | -81.94290 | 20768 ft | 273 kts | 323° |
| 2026-05-04 22:04 | 30.96003 | -81.95438 | 21505 ft | 275 kts | 323° |
| 2026-05-04 22:05 | 30.97647 | -81.96595 | 22265 ft | 277 kts | 323° |
| 2026-05-04 22:05 | 30.99195 | -81.97912 | 23019 ft | 274 kts | 314° |
| 2026-05-04 22:05 | 31.00661 | -81.99356 | 23753 ft | 278 kts | 315° |
| 2026-05-04 22:05 | 31.02166 | -82.00788 | 24385 ft | 280 kts | 315° |
| 2026-05-04 22:06 | 31.03673 | -82.02230 | 25040 ft | 281 kts | 314° |
| 2026-05-04 22:06 | 31.05179 | -82.03689 | 25687 ft | 282 kts | 314° |
| 2026-05-04 22:06 | 31.06689 | -82.05150 | 26297 ft | 283 kts | 313° |
| 2026-05-04 22:06 | 31.08211 | -82.06619 | 26917 ft | 284 kts | 313° |
| 2026-05-04 22:07 | 31.09734 | -82.08090 | 27515 ft | 285 kts | 313° |
| 2026-05-04 22:07 | 31.11264 | -82.09570 | 28107 ft | 286 kts | 313° |
| 2026-05-04 22:07 | 31.12799 | -82.11055 | 28696 ft | 288 kts | 312° |
| 2026-05-04 22:07 | 31.14345 | -82.12550 | 29251 ft | 289 kts | 312° |
| 2026-05-04 22:08 | 31.15902 | -82.14057 | 29801 ft | 290 kts | 312° |
| 2026-05-04 22:08 | 31.16935 | -82.15057 | 30137 ft | 291 kts | 311° |
| 2026-05-04 22:08 | 31.18499 | -82.16573 | 30551 ft | 293 kts | 311° |
| 2026-05-04 22:08 | 31.20569 | -82.18576 | 31217 ft | 291 kts | 311° |
| 2026-05-04 22:09 | 31.22122 | -82.20081 | 31719 ft | 289 kts | 311° |
| 2026-05-04 22:09 | 31.23661 | -82.21576 | 32216 ft | 287 kts | 311° |
| 2026-05-04 22:09 | 31.25194 | -82.23064 | 32704 ft | 286 kts | 311° |
| 2026-05-04 22:09 | 31.26719 | -82.24545 | 33187 ft | 284 kts | 311° |
| 2026-05-04 22:10 | 31.27745 | -82.25540 | 33510 ft | 283 kts | 311° |
| 2026-05-04 22:10 | 31.29241 | -82.26994 | 34040 ft | 282 kts | 310° |
| 2026-05-04 22:10 | 31.30738 | -82.28449 | 34451 ft | 280 kts | 310° |
| 2026-05-04 22:10 | 31.32233 | -82.29904 | 34824 ft | 279 kts | 310° |
| 2026-05-04 22:11 | 31.33724 | -82.31356 | 35190 ft | 279 kts | 310° |
| 2026-05-04 22:11 | 31.35211 | -82.32803 | 35551 ft | 278 kts | 310° |
| 2026-05-04 22:11 | 31.36694 | -82.34247 | 35908 ft | 277 kts | 310° |
| 2026-05-04 22:11 | 31.38179 | -82.35694 | 36264 ft | 277 kts | 310° |
| 2026-05-04 22:12 | 31.39656 | -82.37133 | 36614 ft | 276 kts | 310° |
| 2026-05-04 22:12 | 31.41131 | -82.38571 | 36961 ft | 276 kts | 310° |
| 2026-05-04 22:12 | 31.42605 | -82.40008 | 37313 ft | 275 kts | 310° |
| 2026-05-04 22:12 | 31.44069 | -82.41436 | 37704 ft | 272 kts | 310° |
| 2026-05-04 22:13 | 31.45521 | -82.42853 | 38069 ft | 271 kts | 310° |
| 2026-05-04 22:13 | 31.46965 | -82.44265 | 38403 ft | 270 kts | 310° |
| 2026-05-04 22:13 | 31.48406 | -82.45674 | 38726 ft | 270 kts | 310° |
| 2026-05-04 22:13 | 31.49849 | -82.47083 | 38989 ft | 269 kts | 310° |
| 2026-05-04 22:14 | 31.51270 | -82.48472 | 39237 ft | 269 kts | 310° |
| 2026-05-04 22:14 | 31.52703 | -82.49876 | 39483 ft | 269 kts | 310° |
| 2026-05-04 22:14 | 31.54139 | -82.51281 | 39718 ft | 268 kts | 310° |
| 2026-05-04 22:14 | 31.55576 | -82.52675 | 39959 ft | 268 kts | 310° |
| 2026-05-04 22:15 | 31.57026 | -82.54081 | 40038 ft | 274 kts | 310° |
| 2026-05-04 22:15 | 31.58515 | -82.55532 | 40078 ft | 282 kts | 311° |
| 2026-05-04 22:15 | 31.60050 | -82.57024 | 40055 ft | 290 kts | 311° |
| 2026-05-04 22:15 | 31.61626 | -82.58553 | 40055 ft | 297 kts | 311° |
| 2026-05-04 22:16 | 31.63231 | -82.60112 | 40057 ft | 303 kts | 311° |
| 2026-05-04 22:16 | 31.66535 | -82.63327 | 40064 ft | 313 kts | 311° |
| 2026-05-04 22:17 | 31.69940 | -82.66643 | 40064 ft | 322 kts | 312° |
| 2026-05-04 22:17 | 31.73422 | -82.70037 | 40064 ft | 328 kts | 312° |
| 2026-05-04 22:18 | 31.76969 | -82.73499 | 40065 ft | 334 kts | 312° |
| 2026-05-04 22:18 | 31.80545 | -82.76992 | 40064 ft | 338 kts | 312° |
| 2026-05-04 22:19 | 31.84182 | -82.80548 | 40062 ft | 341 kts | 313° |
| 2026-05-04 22:19 | 31.87844 | -82.84134 | 40082 ft | 344 kts | 313° |
| 2026-05-04 22:20 | 31.91546 | -82.87762 | 40056 ft | 347 kts | 313° |
| 2026-05-04 22:20 | 31.95261 | -82.91407 | 40056 ft | 348 kts | 313° |
| 2026-05-04 22:21 | 31.98980 | -82.95060 | 40055 ft | 349 kts | 313° |
| 2026-05-04 22:21 | 32.02682 | -82.98701 | 40056 ft | 349 kts | 313° |
| 2026-05-04 22:22 | 32.06422 | -83.02382 | 40053 ft | 350 kts | 313° |
| 2026-05-04 22:22 | 32.10185 | -83.06091 | 40061 ft | 350 kts | 313° |
| 2026-05-04 22:23 | 32.13925 | -83.09780 | 40062 ft | 351 kts | 313° |
| 2026-05-04 22:23 | 32.17668 | -83.13478 | 40060 ft | 352 kts | 313° |
| 2026-05-04 22:24 | 32.21398 | -83.17166 | 40057 ft | 352 kts | 313° |
| 2026-05-04 22:24 | 32.25159 | -83.20889 | 40058 ft | 352 kts | 313° |
| 2026-05-04 22:25 | 32.28908 | -83.24605 | 40055 ft | 352 kts | 313° |
| 2026-05-04 22:25 | 32.32660 | -83.28327 | 40055 ft | 352 kts | 313° |
| 2026-05-04 22:26 | 32.36410 | -83.32052 | 40055 ft | 352 kts | 313° |
| 2026-05-04 22:26 | 32.40135 | -83.35755 | 40057 ft | 352 kts | 313° |
| 2026-05-04 22:27 | 32.43794 | -83.39398 | 40056 ft | 352 kts | 313° |
| 2026-05-04 22:27 | 32.47545 | -83.43136 | 40053 ft | 353 kts | 314° |
| 2026-05-04 22:28 | 32.51312 | -83.46893 | 40046 ft | 354 kts | 314° |
| 2026-05-04 22:28 | 32.55078 | -83.50655 | 40047 ft | 354 kts | 314° |
| 2026-05-04 22:29 | 32.58843 | -83.54421 | 40035 ft | 354 kts | 314° |
| 2026-05-04 22:29 | 32.62601 | -83.58182 | 40036 ft | 353 kts | 314° |
| 2026-05-04 22:30 | 32.66436 | -83.61839 | 40039 ft | 357 kts | 320° |
| 2026-05-04 22:30 | 32.70917 | -83.64539 | 40055 ft | 368 kts | 332° |
| 2026-05-04 22:30 | 32.73380 | -83.65411 | 39852 ft | 371 kts | 339° |
| 2026-05-04 22:31 | 32.75932 | -83.65925 | 39386 ft | 372 kts | 343° |
| 2026-05-04 22:31 | 32.78499 | -83.66364 | 38937 ft | 373 kts | 342° |
| 2026-05-04 22:31 | 32.81062 | -83.66831 | 38425 ft | 373 kts | 342° |
| 2026-05-04 22:31 | 32.83603 | -83.67290 | 37877 ft | 375 kts | 343° |
| 2026-05-04 22:32 | 32.86225 | -83.67751 | 37326 ft | 377 kts | 343° |
| 2026-05-04 22:32 | 32.88798 | -83.68203 | 36807 ft | 380 kts | 344° |
| 2026-05-04 22:32 | 32.91418 | -83.68670 | 36294 ft | 382 kts | 344° |
| 2026-05-04 22:32 | 32.94052 | -83.69140 | 35754 ft | 384 kts | 345° |
| 2026-05-04 22:33 | 32.96707 | -83.69612 | 35138 ft | 387 kts | 345° |
| 2026-05-04 22:33 | 32.99380 | -83.70086 | 34539 ft | 389 kts | 345° |
| 2026-05-04 22:33 | 33.02062 | -83.70563 | 33969 ft | 391 kts | 346° |
| 2026-05-04 22:33 | 33.04771 | -83.71046 | 33287 ft | 394 kts | 346° |
| 2026-05-04 22:34 | 33.07483 | -83.71529 | 32626 ft | 395 kts | 346° |
| 2026-05-04 22:34 | 33.10210 | -83.72015 | 31982 ft | 397 kts | 346° |
| 2026-05-04 22:34 | 33.12948 | -83.72504 | 31352 ft | 399 kts | 346° |
| 2026-05-04 22:34 | 33.15698 | -83.72995 | 30736 ft | 400 kts | 346° |
| 2026-05-04 22:35 | 33.18457 | -83.73488 | 30132 ft | 402 kts | 346° |
| 2026-05-04 22:35 | 33.21230 | -83.73983 | 29438 ft | 404 kts | 346° |
| 2026-05-04 22:35 | 33.24011 | -83.74481 | 28754 ft | 405 kts | 346° |
| 2026-05-04 22:35 | 33.26799 | -83.74979 | 28085 ft | 404 kts | 346° |
| 2026-05-04 22:36 | 33.29565 | -83.75473 | 27431 ft | 400 kts | 346° |
| 2026-05-04 22:36 | 33.32305 | -83.75964 | 26793 ft | 396 kts | 346° |
| 2026-05-04 22:36 | 33.35017 | -83.76451 | 26169 ft | 393 kts | 346° |
| 2026-05-04 22:36 | 33.37711 | -83.76935 | 25560 ft | 390 kts | 346° |
| 2026-05-04 22:37 | 33.40380 | -83.77414 | 24962 ft | 387 kts | 346° |
| 2026-05-04 22:37 | 33.43033 | -83.77890 | 24376 ft | 384 kts | 346° |
| 2026-05-04 22:37 | 33.45663 | -83.78364 | 23799 ft | 381 kts | 346° |
| 2026-05-04 22:37 | 33.48273 | -83.78834 | 23156 ft | 378 kts | 346° |
| 2026-05-04 22:38 | 33.50871 | -83.79301 | 22488 ft | 375 kts | 346° |
| 2026-05-04 22:38 | 33.53444 | -83.79764 | 21849 ft | 372 kts | 347° |
| 2026-05-04 22:38 | 33.55983 | -83.80223 | 21212 ft | 369 kts | 347° |
| 2026-05-04 22:38 | 33.58513 | -83.80679 | 20488 ft | 365 kts | 347° |
| 2026-05-04 22:39 | 33.61022 | -83.81132 | 19757 ft | 362 kts | 347° |
| 2026-05-04 22:39 | 33.63510 | -83.81581 | 19044 ft | 359 kts | 347° |
| 2026-05-04 22:39 | 33.65971 | -83.82025 | 18346 ft | 357 kts | 347° |
| 2026-05-04 22:39 | 33.68391 | -83.82463 | 17567 ft | 354 kts | 348° |
| 2026-05-04 22:40 | 33.70811 | -83.82900 | 16796 ft | 349 kts | 348° |
| 2026-05-04 22:40 | 33.73231 | -83.83339 | 16032 ft | 345 kts | 348° |
| 2026-05-04 22:40 | 33.75588 | -83.83766 | 15303 ft | 341 kts | 348° |
| 2026-05-04 22:40 | 33.77916 | -83.84187 | 15011 ft | 337 kts | 349° |
| 2026-05-04 22:41 | 33.80245 | -83.84611 | 15017 ft | 339 kts | 348° |
| 2026-05-04 22:41 | 33.82578 | -83.85033 | 15005 ft | 338 kts | 348° |
| 2026-05-04 22:41 | 33.84899 | -83.85454 | 15005 ft | 338 kts | 348° |
| 2026-05-04 22:41 | 33.87224 | -83.85876 | 15009 ft | 338 kts | 348° |
| 2026-05-04 22:42 | 33.89557 | -83.86301 | 15007 ft | 338 kts | 348° |
| 2026-05-04 22:42 | 33.91852 | -83.86718 | 15010 ft | 338 kts | 348° |
| 2026-05-04 22:42 | 33.94178 | -83.87140 | 15002 ft | 338 kts | 348° |
| 2026-05-04 22:42 | 33.96506 | -83.87565 | 15007 ft | 338 kts | 348° |
| 2026-05-04 22:43 | 33.98829 | -83.87988 | 15006 ft | 338 kts | 348° |
| 2026-05-04 22:43 | 34.01156 | -83.88411 | 15003 ft | 338 kts | 348° |
| 2026-05-04 22:43 | 34.03482 | -83.88836 | 15005 ft | 338 kts | 348° |
| 2026-05-04 22:43 | 34.05807 | -83.89260 | 15006 ft | 338 kts | 348° |
| 2026-05-04 22:44 | 34.08132 | -83.89683 | 15009 ft | 338 kts | 348° |
| 2026-05-04 22:44 | 34.10400 | -83.90353 | 15004 ft | 334 kts | 336° |
| 2026-05-04 22:44 | 34.12485 | -83.91565 | 15008 ft | 332 kts | 326° |
| 2026-05-04 22:44 | 34.14316 | -83.93245 | 15013 ft | 330 kts | 314° |
| 2026-05-04 22:45 | 34.15824 | -83.95313 | 15007 ft | 327 kts | 303° |
| 2026-05-04 22:45 | 34.18453 | -83.99791 | 14237 ft | 325 kts | 304° |
| 2026-05-04 22:45 | 34.19766 | -84.01998 | 13498 ft | 322 kts | 303° |
| 2026-05-04 22:46 | 34.21053 | -84.04191 | 12725 ft | 319 kts | 302° |
| 2026-05-04 22:46 | 34.21974 | -84.06588 | 11966 ft | 310 kts | 283° |
| 2026-05-04 22:46 | 34.22339 | -84.09106 | 11226 ft | 300 kts | 275° |
| 2026-05-04 22:46 | 34.22616 | -84.11577 | 10505 ft | 294 kts | 277° |
| 2026-05-04 22:47 | 34.23036 | -84.13980 | 9783 ft | 291 kts | 281° |
| 2026-05-04 22:47 | 34.23551 | -84.16334 | 9003 ft | 287 kts | 282° |
| 2026-05-04 22:47 | 34.24017 | -84.18664 | 8250 ft | 283 kts | 280° |
| 2026-05-04 22:47 | 34.24439 | -84.20973 | 7504 ft | 280 kts | 280° |
| 2026-05-04 22:48 | 34.24863 | -84.23239 | 7154 ft | 274 kts | 281° |
| 2026-05-04 22:48 | 34.25296 | -84.25475 | 6807 ft | 274 kts | 281° |
| 2026-05-04 22:48 | 34.25725 | -84.27719 | 6449 ft | 273 kts | 281° |
| 2026-05-04 22:48 | 34.26150 | -84.29956 | 6079 ft | 273 kts | 280° |
| 2026-05-04 22:49 | 34.26570 | -84.32166 | 5715 ft | 272 kts | 280° |
| 2026-05-04 22:49 | 34.27111 | -84.34354 | 5356 ft | 274 kts | 292° |
| 2026-05-04 22:49 | 34.28088 | -84.36289 | 5007 ft | 263 kts | 307° |
| 2026-05-04 22:49 | 34.29340 | -84.37783 | 4761 ft | 247 kts | 320° |
| 2026-05-04 22:50 | 34.30776 | -84.38844 | 4430 ft | 238 kts | 334° |
| 2026-05-04 22:50 | 34.32279 | -84.39553 | 4119 ft | 223 kts | 338° |
| 2026-05-04 22:50 | 34.33665 | -84.40207 | 3825 ft | 204 kts | 337° |
| 2026-05-04 22:50 | 34.34934 | -84.40812 | 3582 ft | 189 kts | 336° |
| 2026-05-04 22:51 | 34.36122 | -84.41371 | 3348 ft | 178 kts | 337° |
| 2026-05-04 22:51 | 34.37260 | -84.41907 | 3116 ft | 173 kts | 336° |
| 2026-05-04 22:51 | 34.38363 | -84.42425 | 2895 ft | 165 kts | 335° |
| 2026-05-04 22:51 | 34.39358 | -84.42892 | 2693 ft | 144 kts | 336° |
| 2026-05-04 22:52 | 34.40255 | -84.43313 | 2509 ft | 132 kts | 334° |
| 2026-05-04 22:52 | 34.41084 | -84.43706 | 2335 ft | 125 kts | 335° |
| 2026-05-04 22:52 | 34.41894 | -84.44088 | 2174 ft | 125 kts | 334° |
| 2026-05-04 22:52 | 34.42714 | -84.44477 | 2000 ft | 126 kts | 336° |
| 2026-05-04 22:53 | 34.43510 | -84.44851 | 1838 ft | 121 kts | 337° |
| 2026-05-04 22:53 | 34.44288 | -84.45221 | 1693 ft | 120 kts | 336° |
| 2026-05-04 22:53 | 34.45062 | -84.45585 | 1536 ft | 118 kts | 336° |
| 2026-05-04 22:53 | 34.45709 | -84.45890 | 1515 ft | 55 kts | 339° |
| 2026-05-04 22:54 | 34.45872 | -84.45958 | 1498 ft | 14 kts | 308° |
| 2026-05-04 22:54 | 34.45855 | -84.45971 | 1495 ft | 10 kts | 153° |
| 2026-05-04 22:54 | 34.45744 | -84.45899 | 1500 ft | 26 kts | 163° |
| 2026-05-04 22:54 | 34.45630 | -84.45851 | 1509 ft | 19 kts | 163° |
| 2026-05-04 22:55 | 34.45480 | -84.45779 | 1522 ft | 18 kts | 152° |
| 2026-05-04 22:55 | 34.45389 | -84.45771 | 1527 ft | 12 kts | 241° |
| 2026-05-04 22:55 | 34.45347 | -84.45825 | 1505 ft | 4 kts | 151° |
| 2026-05-04 22:55 | 34.45297 | -84.45805 | 1525 ft | 6 kts | 181° |
| 2026-05-04 22:56 | 34.45287 | -84.45812 | 1525 ft | 5 kts | 232° |
| 2026-05-04 22:56 | 34.45275 | -84.45840 | 1526 ft | 0 kts | 240° |